Apple Springs, TX (75926)

4:56 PM CST on February 13, 2016 (GMT -0600)
Old Bonner | | Change Station
CLOSE
Current Station
Personal Weather Station
Location: Lufkin, TX
Elevation: 282 ft
Nearby Weather Stations

Elev 282 ft 31.35 °N, 94.88 °W | Updated 2 minutes ago

Overcast
Overcast
65.1 °F
Feels Like 65.1 °F
N
3.2
Wind Variable Wind from ENE

Today
High -- | Low -- °F
--% Chance of Precip.
Yesterday
High -- | Low -- °F
Precip. -- in
Pressure 30.26 in
Visibility 10.0 miles
Clouds Overcast 4700 ft
Dew Point 44 °F
Humidity 46%
Rainfall 0.00 in
Snow Depth Not available.
7:03 AM 6:05 PM
Waxing Crescent, 35% visible
METAR KLFK 132253Z AUTO 09005KT 10SM OVC047 18/05 A3026 RMK AO2 SLP245 T01780050
Pressure 30.26 in
Visibility 10.0 miles
Clouds Overcast 4700 ft
Dew Point 44 °F
Humidity 46%
Rainfall 0.00 in
Snow Depth Not available.
7:03 AM 6:05 PM
Waxing Crescent, 35% visible
METAR KLFK 132253Z AUTO 09005KT 10SM OVC047 18/05 A3026 RMK AO2 SLP245 T01780050

10-Day Weather Forecast

Almanac

Astronomy

Feb. 13, 2016 Rise Set
Actual Time
Civil Twilight
Nautical Twilight
Astronomical Twilight
Moon
Length of Visible Light
Length of Day
Tomorrow will be .
, % of the Moon is Illuminated

Today's Extremes

State Highs State Lows

Community

WunderPhotos

Upload Photos

1,892,689 photos uploaded!

WunderBlog® & News

Nearby

Air Quality

  Air Quality AQ Index Pollutant
Not available.

Snow Depth

Station Depth Elevation

Earthquake Activity

City Distance Mag. Time & Date
Minimum magnitude displayed is 2.5.

Coastal Water Temperatures

Place Temperature

Stations

Nearby Weather Stations

Station Location Temp. Windchill Dew Point Humidity Wind Precip. Elev Updated Type
                   

Watches & Warnings

There are currently no watches in effect.